Time;durP1;ratioP1;P1;durP2;ratioP2;P2;SDS_P1;SDS_P2;PMS_P1;PMS_P2;Temp;Humidity;BMP_temperature;BMP_pressure;BME280_temperature;BME280_humidity;BME280_pressure;Samples;Min_cycle;Max_cycle;Signal;HPM_P1;HPM_P2
2024/03/12 00:00:43;;;;;;;75.13;33.10;;;8.50;99.90;;;;;;4824037;29;20617;-83
2024/03/12 00:03:09;;;;;;;75.70;34.63;;;8.50;99.90;;;;;;4831359;29;20386;-85
2024/03/12 00:05:36;;;;;;;74.32;34.20;;;8.50;99.90;;;;;;4835656;29;20030;-84
2024/03/12 00:08:02;;;;;;;76.35;35.25;;;8.50;99.90;;;;;;4843855;29;20034;-86
2024/03/12 00:10:29;;;;;;;79.25;33.95;;;8.50;99.90;;;;;;4823697;29;20091;-85
2024/03/12 00:12:58;;;;;;;76.95;34.92;;;8.40;99.90;;;;;;4829844;29;20038;-85
2024/03/12 00:15:24;;;;;;;69.30;34.70;;;8.40;99.90;;;;;;4834829;29;20030;-85
2024/03/12 00:17:51;;;;;;;81.00;35.28;;;8.40;99.90;;;;;;4842992;29;20391;-85
2024/03/12 00:20:18;;;;;;;75.60;34.10;;;8.40;99.90;;;;;;4840294;29;20061;-88
2024/03/12 00:22:47;;;;;;;76.63;35.05;;;8.40;99.90;;;;;;4841971;29;20065;-84
2024/03/12 00:25:19;;;;;;;79.70;33.92;;;8.40;99.90;;;;;;4842319;29;20498;-84
2024/03/12 00:27:48;;;;;;;80.32;36.08;;;8.30;99.90;;;;;;4840993;29;20515;-84
2024/03/12 00:30:14;;;;;;;81.50;35.28;;;8.30;99.90;;;;;;4840882;29;20052;-85
2024/03/12 00:32:41;;;;;;;78.90;36.03;;;8.30;99.90;;;;;;4836435;29;20038;-85
2024/03/12 00:35:10;;;;;;;73.30;34.22;;;8.30;99.90;;;;;;4823944;29;20054;-85
2024/03/12 00:37:41;;;;;;;75.32;33.38;;;8.30;99.90;;;;;;4826439;29;20088;-85
2024/03/12 00:40:11;;;;;;;76.60;33.95;;;8.30;99.90;;;;;;4839095;29;20416;-85
2024/03/12 00:42:43;;;;;;;81.50;35.55;;;8.30;99.90;;;;;;4849016;29;20067;-85
2024/03/12 00:45:13;;;;;;;78.25;34.15;;;8.30;99.90;;;;;;4842428;29;20038;-84
2024/03/12 00:47:42;;;;;;;85.32;34.30;;;8.40;99.90;;;;;;4824099;29;20030;-85
2024/03/12 00:50:12;;;;;;;82.43;32.25;;;8.40;99.90;;;;;;4824774;29;20073;-84
2024/03/12 00:52:43;;;;;;;69.65;32.67;;;8.40;99.90;;;;;;4828147;29;20042;-85
2024/03/12 00:55:09;;;;;;;71.85;32.97;;;8.40;99.90;;;;;;4826115;29;20103;-85
2024/03/12 00:57:36;;;;;;;77.43;32.22;;;8.40;99.90;;;;;;4824042;29;20034;-85
2024/03/12 01:00:02;;;;;;;84.80;33.53;;;8.40;99.90;;;;;;4824950;29;20046;-85
2024/03/12 01:02:31;;;;;;;75.28;33.17;;;8.40;99.90;;;;;;4853268;29;20516;-86
2024/03/12 01:04:58;;;;;;;80.40;33.63;;;8.40;99.90;;;;;;4860878;29;20513;-85
2024/03/12 01:07:25;;;;;;;77.85;32.97;;;8.30;99.90;;;;;;4844327;29;20121;-85
2024/03/12 01:09:50;;;;;;;80.68;33.67;;;8.30;99.90;;;;;;4836394;29;20471;-84
2024/03/12 01:12:16;;;;;;;86.55;34.83;;;8.30;99.90;;;;;;4842580;29;20021;-84
2024/03/12 01:14:42;;;;;;;76.90;34.75;;;8.40;99.90;;;;;;4847278;29;20089;-84
2024/03/12 01:17:08;;;;;;;78.57;33.17;;;8.30;99.90;;;;;;4841983;29;20086;-84
2024/03/12 01:19:41;;;;;;;80.30;35.70;;;8.30;99.90;;;;;;4842310;29;20475;-85
2024/03/12 01:22:08;;;;;;;89.70;34.03;;;8.30;99.90;;;;;;4836932;29;20145;-84
2024/03/12 01:24:34;;;;;;;71.70;33.00;;;8.30;99.90;;;;;;4839501;29;20045;-85
2024/03/12 01:27:00;;;;;;;88.45;36.30;;;8.30;99.90;;;;;;4847430;29;20029;-85
2024/03/12 01:29:26;;;;;;;74.38;32.88;;;8.20;99.90;;;;;;4860389;29;20078;-85
2024/03/12 01:31:52;;;;;;;70.90;34.00;;;8.20;99.90;;;;;;4848744;29;20030;-85
2024/03/12 01:34:22;;;;;;;70.57;32.50;;;8.20;99.90;;;;;;4859272;29;20040;-84
2024/03/12 01:36:48;;;;;;;83.63;34.15;;;8.20;99.90;;;;;;4827588;29;20035;-84
2024/03/12 01:39:16;;;;;;;82.35;35.45;;;8.20;99.90;;;;;;4824297;29;20037;-85
2024/03/12 01:41:44;;;;;;;76.72;34.45;;;8.20;99.90;;;;;;4823610;29;20539;-86
2024/03/12 01:44:11;;;;;;;87.82;35.97;;;8.20;99.90;;;;;;4828720;29;20749;-85
2024/03/12 01:46:37;;;;;;;83.70;33.67;;;8.20;99.90;;;;;;4838637;29;20057;-84
2024/03/12 01:49:08;;;;;;;90.70;35.47;;;8.10;99.90;;;;;;4856246;29;20040;-85
2024/03/12 01:51:35;;;;;;;102.20;35.70;;;8.10;99.90;;;;;;4860144;29;20450;-85
2024/03/12 01:54:03;;;;;;;84.78;35.03;;;8.10;99.90;;;;;;4860299;29;20082;-85
2024/03/12 01:56:30;;;;;;;87.78;34.63;;;8.10;99.90;;;;;;4838390;29;20385;-85
2024/03/12 01:58:57;;;;;;;88.70;35.92;;;8.10;99.90;;;;;;4839669;29;20112;-85
2024/03/12 02:01:24;;;;;;;99.82;36.50;;;8.10;99.90;;;;;;4841477;29;20052;-84
2024/03/12 02:03:51;;;;;;;79.85;34.88;;;8.00;99.90;;;;;;4839036;29;20030;-84
2024/03/12 02:06:24;;;;;;;80.95;32.90;;;8.00;99.90;;;;;;4831310;29;20038;-84
2024/03/12 02:08:52;;;;;;;87.57;34.38;;;8.60;99.90;;;;;;4821998;29;20359;-85
2024/03/12 02:11:19;;;;;;;93.78;34.08;;;8.00;99.90;;;;;;4824523;29;20050;-85
2024/03/12 02:13:45;;;;;;;85.50;33.33;;;8.00;99.90;;;;;;4822912;29;20030;-84
2024/03/12 02:16:10;;;;;;;80.28;32.50;;;7.90;99.90;;;;;;4824293;29;20040;-84
2024/03/12 02:18:37;;;;;;;80.72;32.55;;;7.90;99.90;;;;;;4840656;29;20044;-85
2024/03/12 02:21:03;;;;;;;80.95;32.47;;;7.90;99.90;;;;;;4841084;29;20082;-84
2024/03/12 02:23:56;;;;;;;72.68;32.00;;;7.90;99.90;;;;;;4840346;29;20030;-84
2024/03/12 02:26:24;;;;;;;85.47;31.80;;;7.90;99.90;;;;;;4834390;29;20045;-84
2024/03/12 02:28:50;;;;;;;79.32;29.98;;;7.90;99.90;;;;;;4838684;29;20046;-84
2024/03/12 02:31:15;;;;;;;81.43;29.98;;;8.00;99.90;;;;;;4840379;29;20439;-85
2024/03/12 02:33:41;;;;;;;84.80;31.05;;;8.00;99.90;;;;;;4840717;29;20054;-84
2024/03/12 02:36:07;;;;;;;91.88;31.15;;;8.00;99.90;;;;;;4834697;29;20038;-84
2024/03/12 02:38:38;;;;;;;69.68;26.83;;;8.00;99.90;;;;;;4824365;29;20864;-84
2024/03/12 02:41:07;;;;;;;71.22;28.58;;;8.00;99.90;;;;;;4830084;29;20077;-85
2024/03/12 02:43:32;;;;;;;61.53;27.15;;;8.00;99.90;;;;;;4831879;29;20113;-84
2024/03/12 02:45:58;;;;;;;60.20;27.42;;;8.00;99.90;;;;;;4844475;29;20116;-83
2024/03/12 02:48:25;;;;;;;62.00;26.98;;;7.90;99.90;;;;;;4832303;29;20030;-84
2024/03/12 02:50:51;;;;;;;64.38;25.98;;;7.90;99.90;;;;;;4826215;29;20034;-84
2024/03/12 02:53:17;;;;;;;62.65;27.02;;;7.90;99.90;;;;;;4843321;29;20082;-84
2024/03/12 02:55:42;;;;;;;61.10;25.77;;;7.90;99.90;;;;;;4843331;29;20394;-84
2024/03/12 02:58:08;;;;;;;55.75;24.27;;;7.90;99.90;;;;;;4840103;29;20030;-84
2024/03/12 03:00:35;;;;;;;61.40;25.13;;;7.90;99.90;;;;;;4841511;29;20490;-84
2024/03/12 03:03:02;;;;;;;55.30;25.52;;;7.90;99.90;;;;;;4837945;29;20034;-84
2024/03/12 03:05:28;;;;;;;55.40;25.38;;;7.90;99.90;;;;;;4846596;29;20049;-84
2024/03/12 03:07:54;;;;;;;63.97;27.17;;;7.80;99.90;;;;;;4862152;29;20029;-85
2024/03/12 03:10:20;;;;;;;54.80;26.25;;;7.90;99.90;;;;;;4848055;29;20034;-84
2024/03/12 03:12:46;;;;;;;60.47;26.13;;;7.80;99.90;;;;;;4844725;29;20041;-84
2024/03/12 03:15:12;;;;;;;69.35;26.20;;;7.80;99.90;;;;;;4835841;29;20027;-84
2024/03/12 03:17:42;;;;;;;64.20;26.70;;;7.80;99.90;;;;;;4825801;29;20077;-84
2024/03/12 03:20:12;;;;;;;60.33;26.95;;;7.80;99.90;;;;;;4826041;29;20034;-84
2024/03/12 03:22:39;;;;;;;68.10;26.35;;;7.80;99.90;;;;;;4842596;29;20042;-84
2024/03/12 03:25:05;;;;;;;72.15;26.95;;;7.90;99.90;;;;;;4836914;29;20030;-84
2024/03/12 03:27:31;;;;;;;73.10;26.13;;;7.90;99.90;;;;;;4840399;29;20066;-84
2024/03/12 03:29:59;;;;;;;62.83;24.80;;;7.90;99.90;;;;;;4825484;29;20105;-84
2024/03/12 03:32:25;;;;;;;57.08;23.88;;;7.90;99.90;;;;;;4828825;29;20590;-84
2024/03/12 03:34:51;;;;;;;64.18;26.27;;;8.00;99.90;;;;;;4833948;29;20121;-84
2024/03/12 03:37:16;;;;;;;55.55;24.35;;;8.00;99.90;;;;;;4860536;29;20513;-85
2024/03/12 03:39:42;;;;;;;53.33;23.88;;;8.10;99.90;;;;;;4862457;29;20033;-84
2024/03/12 03:42:08;;;;;;;61.92;24.60;;;8.10;99.90;;;;;;4833053;29;20056;-84
2024/03/12 03:44:34;;;;;;;56.72;25.17;;;8.10;99.90;;;;;;4833580;29;20030;-84
2024/03/12 03:46:59;;;;;;;64.22;24.67;;;8.10;99.90;;;;;;4856481;29;20035;-85
2024/03/12 03:49:25;;;;;;;59.83;24.23;;;8.00;99.90;;;;;;4862078;29;20474;-84
2024/03/12 03:51:51;;;;;;;56.53;24.50;;;8.00;99.90;;;;;;4861708;29;20065;-84
2024/03/12 03:54:17;;;;;;;57.65;24.23;;;8.00;99.90;;;;;;4826409;29;20159;-84
2024/03/12 03:56:45;;;;;;;68.70;25.40;;;8.00;99.90;;;;;;4839884;29;20083;-85
2024/03/12 03:59:13;;;;;;;57.20;25.98;;;8.00;99.90;;;;;;4842475;29;20398;-85
2024/03/12 04:01:39;;;;;;;64.80;25.02;;;8.00;99.90;;;;;;4843340;29;20117;-85
2024/03/12 04:04:10;;;;;;;57.83;24.58;;;9.00;99.90;;;;;;4839711;29;20073;-85
2024/03/12 04:06:39;;;;;;;45.60;22.30;;;8.00;99.90;;;;;;4841575;29;20498;-84
2024/03/12 04:09:05;;;;;;;65.43;24.25;;;8.10;99.90;;;;;;4852768;29;20056;-85
2024/03/12 04:11:33;;;;;;;74.60;24.77;;;8.00;99.90;;;;;;4861261;29;20570;-84
2024/03/12 04:13:59;;;;;;;56.58;23.65;;;8.00;99.90;;;;;;4861674;29;20078;-84
2024/03/12 04:16:25;;;;;;;56.05;25.13;;;8.00;99.90;;;;;;4861489;29;20031;-84
2024/03/12 04:18:53;;;;;;;57.08;24.15;;;8.00;99.90;;;;;;4842898;29;20049;-84
2024/03/12 04:21:20;;;;;;;53.97;23.20;;;8.00;99.90;;;;;;4834313;29;20087;-84
2024/03/12 04:23:46;;;;;;;53.28;22.38;;;8.00;99.90;;;;;;4824118;29;20479;-85
2024/03/12 04:26:12;;;;;;;55.83;23.98;;;8.00;99.90;;;;;;4826921;29;20083;-85
2024/03/12 04:28:38;;;;;;;60.40;22.75;;;8.00;99.90;;;;;;4824268;29;20077;-85
2024/03/12 04:31:07;;;;;;;57.38;23.60;;;8.00;99.90;;;;;;4829130;29;20026;-87
2024/03/12 04:33:34;;;;;;;48.15;22.35;;;8.00;99.90;;;;;;4830606;29;20031;-84
2024/03/12 04:36:00;;;;;;;53.30;22.80;;;8.10;99.90;;;;;;4824259;29;20057;-84
2024/03/12 04:38:26;;;;;;;59.17;23.20;;;8.00;99.90;;;;;;4824493;29;20113;-84
2024/03/12 04:40:51;;;;;;;54.42;21.98;;;8.00;99.90;;;;;;4827631;29;20041;-84
2024/03/12 04:43:18;;;;;;;57.42;22.13;;;8.10;99.90;;;;;;4828065;29;20026;-83
2024/03/12 04:45:44;;;;;;;58.17;23.65;;;8.00;99.90;;;;;;4824686;29;20035;-85
2024/03/12 04:48:11;;;;;;;53.65;21.30;;;8.10;99.90;;;;;;4826184;29;20030;-84
2024/03/12 04:50:40;;;;;;;56.65;21.75;;;8.00;99.90;;;;;;4836647;29;20048;-83
2024/03/12 04:53:06;;;;;;;57.03;22.13;;;8.10;99.90;;;;;;4823001;29;20034;-84
2024/03/12 04:55:36;;;;;;;53.95;21.27;;;8.00;99.90;;;;;;4838485;29;20062;-84
2024/03/12 04:58:04;;;;;;;62.08;22.77;;;8.00;99.90;;;;;;4842965;29;20033;-83
2024/03/12 05:00:29;;;;;;;60.58;21.98;;;8.00;99.90;;;;;;4840381;29;20038;-83
2024/03/12 05:02:55;;;;;;;53.10;22.60;;;7.90;99.90;;;;;;4842126;29;20068;-86
2024/03/12 05:05:21;;;;;;;53.55;22.20;;;7.90;99.90;;;;;;4842656;29;20543;-86
2024/03/12 05:07:50;;;;;;;53.42;22.77;;;7.90;99.90;;;;;;4840774;29;20492;-83
2024/03/12 05:10:17;;;;;;;53.80;20.92;;;7.90;99.90;;;;;;4837444;29;20035;-83
2024/03/12 05:12:43;;;;;;;57.05;20.38;;;7.90;99.90;;;;;;4834094;29;20107;-84
2024/03/12 05:15:09;;;;;;;54.53;20.40;;;7.90;99.90;;;;;;4829930;29;20027;-83
2024/03/12 05:17:41;;;;;;;51.53;22.35;;;7.90;99.90;;;;;;4827397;29;20601;-83
2024/03/12 05:20:09;;;;;;;52.83;20.00;;;7.90;99.90;;;;;;4841265;29;20483;-84
2024/03/12 05:22:36;;;;;;;53.70;20.10;;;7.80;99.90;;;;;;4830761;29;20038;-83
2024/03/12 05:25:02;;;;;;;52.53;22.08;;;7.80;99.90;;;;;;4834885;29;20045;-83
2024/03/12 05:27:37;;;;;;;53.15;20.98;;;7.80;99.90;;;;;;4842507;29;20042;-83
2024/03/12 05:30:10;;;;;;;49.25;21.33;;;7.80;99.90;;;;;;4842459;29;20038;-89
2024/03/12 05:32:41;;;;;;;57.85;20.55;;;7.80;99.90;;;;;;4840326;29;20034;-83
2024/03/12 05:35:16;;;;;;;56.78;20.30;;;7.80;99.90;;;;;;4834997;29;20023;-86
2024/03/12 05:38:01;;;;;;;75.05;23.15;;;7.80;99.90;;;;;;4823453;29;20038;-84
2024/03/12 05:40:39;;;;;;;56.67;20.60;;;7.80;99.90;;;;;;4827211;29;20798;-83
2024/03/12 05:48:34;;;;;;;52.92;21.20;;;7.80;99.90;;;;;;4824371;29;20125;-85
2024/03/12 05:50:59;;;;;;;57.45;21.38;;;7.80;99.90;;;;;;4822397;29;20113;-85
2024/03/12 05:53:25;;;;;;;46.47;19.48;;;7.90;99.90;;;;;;4825240;29;20037;-84
2024/03/12 05:55:51;;;;;;;56.00;20.95;;;7.80;99.90;;;;;;4838521;29;20041;-85
2024/03/12 05:58:16;;;;;;;48.83;18.70;;;7.80;99.90;;;;;;4841526;29;20100;-84
2024/03/12 06:00:42;;;;;;;55.33;20.05;;;7.80;99.90;;;;;;4828685;29;20365;-84
2024/03/12 06:03:07;;;;;;;45.03;19.33;;;7.80;99.90;;;;;;4824228;29;20380;-85
2024/03/12 06:05:33;;;;;;;36.08;18.58;;;7.50;99.90;;;;;;4837320;29;20454;-85
2024/03/12 06:08:00;;;;;;;49.28;19.85;;;7.80;99.90;;;;;;4840941;29;20463;-86
2024/03/12 06:10:26;;;;;;;51.97;20.67;;;7.80;99.90;;;;;;4839379;29;20119;-86
2024/03/12 06:12:51;;;;;;;47.10;19.23;;;7.80;99.90;;;;;;4841185;29;20474;-85
2024/03/12 06:15:17;;;;;;;55.10;21.20;;;7.90;99.90;;;;;;4828779;29;20045;-86
2024/03/12 06:17:42;;;;;;;42.33;18.60;;;7.90;99.90;;;;;;4839534;29;20112;-85
2024/03/12 06:20:12;;;;;;;40.97;18.73;;;7.90;99.90;;;;;;4831726;29;20100;-85
2024/03/12 06:22:38;;;;;;;44.20;19.67;;;7.90;99.90;;;;;;4834270;29;20038;-85
2024/03/12 06:25:05;;;;;;;50.05;18.92;;;8.00;99.90;;;;;;4833663;29;20121;-87
2024/03/12 06:27:32;;;;;;;40.55;18.73;;;8.00;99.90;;;;;;4832912;29;20038;-85
2024/03/12 06:29:57;;;;;;;42.45;18.40;;;8.00;99.90;;;;;;4838224;29;20415;-84
2024/03/12 06:32:25;;;;;;;47.25;18.95;;;8.00;99.90;;;;;;4839967;29;20122;-84
2024/03/12 06:34:50;;;;;;;40.13;18.50;;;8.00;99.90;;;;;;4824033;29;20037;-87
2024/03/12 06:37:16;;;;;;;40.55;19.38;;;8.10;99.90;;;;;;4829138;29;20030;-85
2024/03/12 06:39:41;;;;;;;43.92;19.60;;;8.00;99.90;;;;;;4827112;29;20030;-86
2024/03/12 06:42:08;;;;;;;42.40;17.35;;;8.10;99.90;;;;;;4825993;29;20038;-86
2024/03/12 06:44:40;;;;;;;37.30;16.33;;;8.10;99.90;;;;;;4831620;29;20036;-87
2024/03/12 06:47:07;;;;;;;33.33;16.25;;;8.30;99.90;;;;;;4826722;29;20030;-86
2024/03/12 06:49:33;;;;;;;42.58;16.83;;;8.10;99.90;;;;;;4832631;29;20048;-86
2024/03/12 06:52:00;;;;;;;43.40;17.90;;;8.10;99.90;;;;;;4837696;29;20041;-85
2024/03/12 06:54:26;;;;;;;35.83;16.15;;;8.10;99.90;;;;;;4840820;29;20090;-87
2024/03/12 06:56:53;;;;;;;39.67;15.00;;;8.10;99.90;;;;;;4845619;29;20034;-87
2024/03/12 06:59:21;;;;;;;37.55;15.50;;;8.10;99.90;;;;;;4853317;29;20048;-86
2024/03/12 07:01:53;;;;;;;29.58;14.60;;;8.00;99.90;;;;;;4836851;29;20042;-86
2024/03/12 07:04:23;;;;;;;40.90;16.70;;;8.00;99.90;;;;;;4841420;29;20038;-85
2024/03/12 07:06:50;;;;;;;31.80;13.82;;;8.00;99.90;;;;;;4839714;29;20042;-84
2024/03/12 07:09:26;;;;;;;37.60;15.07;;;8.00;99.90;;;;;;4850186;29;20407;-85
2024/03/12 07:11:54;;;;;;;38.42;17.00;;;7.90;99.90;;;;;;4843691;29;20036;-86
2024/03/12 07:14:27;;;;;;;34.38;15.57;;;7.90;99.90;;;;;;4849609;29;20042;-86
2024/03/12 07:16:53;;;;;;;35.28;15.23;;;7.90;99.90;;;;;;4834542;29;20062;-86
2024/03/12 07:19:22;;;;;;;37.28;14.80;;;7.90;99.90;;;;;;4833314;29;20069;-86
2024/03/12 07:21:48;;;;;;;26.30;14.75;;;8.00;99.90;;;;;;4845885;29;20057;-86
2024/03/12 07:24:14;;;;;;;30.98;15.75;;;8.00;99.90;;;;;;4841887;29;20109;-86
2024/03/12 07:26:39;;;;;;;37.47;16.73;;;8.00;99.90;;;;;;4844026;29;20101;-87
2024/03/12 07:29:09;;;;;;;44.45;17.05;;;8.00;99.90;;;;;;4835440;29;20047;-85
2024/03/12 07:31:35;;;;;;;35.42;17.27;;;8.00;99.90;;;;;;4830665;29;20035;-84
2024/03/12 07:34:01;;;;;;;41.10;17.80;;;8.00;99.90;;;;;;4838728;29;20029;-85
2024/03/12 07:36:30;;;;;;;37.30;18.58;;;8.10;99.90;;;;;;4845586;29;20121;-84
2024/03/12 07:38:59;;;;;;;36.45;17.90;;;8.10;99.90;;;;;;4854858;29;20021;-84
2024/03/12 07:41:25;;;;;;;40.78;18.20;;;8.10;99.90;;;;;;4846136;29;20053;-84
2024/03/12 07:43:51;;;;;;;34.80;17.58;;;8.10;99.90;;;;;;4838488;29;20090;-84
2024/03/12 07:46:20;;;;;;;34.88;17.15;;;8.10;99.90;;;;;;4846795;29;20412;-84
2024/03/12 07:48:47;;;;;;;39.63;18.42;;;8.10;99.90;;;;;;4832192;29;20506;-85
2024/03/12 07:51:13;;;;;;;36.10;18.48;;;8.10;99.90;;;;;;4851141;29;20486;-85
2024/03/12 07:53:39;;;;;;;36.63;18.83;;;8.10;99.90;;;;;;4853427;29;20060;-84
2024/03/12 07:56:06;;;;;;;40.47;18.48;;;8.10;99.90;;;;;;4850958;29;20034;-85
2024/03/12 07:58:33;;;;;;;38.13;18.25;;;8.10;99.90;;;;;;4831702;29;20026;-86
2024/03/12 08:00:59;;;;;;;40.38;18.65;;;8.10;99.90;;;;;;4842763;29;20041;-84
2024/03/12 08:03:24;;;;;;;34.88;17.50;;;8.10;99.90;;;;;;4832139;29;20429;-84
2024/03/12 08:05:50;;;;;;;40.92;18.92;;;8.10;99.90;;;;;;4839011;29;20034;-84
2024/03/12 08:08:16;;;;;;;35.92;18.30;;;8.10;99.90;;;;;;4833171;29;20023;-87
2024/03/12 08:10:41;;;;;;;36.22;17.42;;;8.10;99.90;;;;;;4841142;29;20030;-85
2024/03/12 08:13:07;;;;;;;34.72;18.08;;;8.20;99.90;;;;;;4850068;29;20264;-86
2024/03/12 08:15:34;;;;;;;36.83;17.95;;;8.10;99.90;;;;;;4832924;29;20273;-86
2024/03/12 08:18:02;;;;;;;38.22;17.45;;;8.10;99.90;;;;;;4849734;29;20048;-85
2024/03/12 08:20:28;;;;;;;33.38;18.23;;;8.00;99.90;;;;;;4842501;29;20184;-85
2024/03/12 08:22:53;;;;;;;31.13;17.98;;;8.10;99.90;;;;;;4837695;29;20113;-85
2024/03/12 08:25:20;;;;;;;28.15;17.63;;;8.20;99.90;;;;;;4839230;29;20029;-85
2024/03/12 08:27:47;;;;;;;36.55;17.13;;;8.20;99.90;;;;;;4842931;29;20402;-85
2024/03/12 08:30:13;;;;;;;31.52;16.23;;;8.20;99.90;;;;;;4840148;29;20083;-84
2024/03/12 08:32:42;;;;;;;29.52;16.10;;;8.20;99.90;;;;;;4842059;29;20502;-84
2024/03/12 08:35:11;;;;;;;31.45;15.63;;;8.20;99.90;;;;;;4836095;29;20026;-84
2024/03/12 08:37:37;;;;;;;27.98;15.65;;;8.30;99.90;;;;;;4842717;29;20033;-86
2024/03/12 08:40:07;;;;;;;27.80;16.23;;;8.40;99.90;;;;;;4843531;29;20060;-85
2024/03/12 08:42:35;;;;;;;28.23;16.95;;;8.40;99.90;;;;;;4841370;29;20046;-86
2024/03/12 08:45:01;;;;;;;31.27;15.05;;;8.40;99.90;;;;;;4835071;29;20041;-85
2024/03/12 08:47:27;;;;;;;27.58;15.18;;;8.50;99.90;;;;;;4832791;29;20030;-85
2024/03/12 08:49:52;;;;;;;30.95;14.18;;;8.50;99.90;;;;;;4838715;29;20471;-84
2024/03/12 08:52:18;;;;;;;27.92;14.32;;;8.60;99.90;;;;;;4832671;29;20041;-86
2024/03/12 08:54:43;;;;;;;28.98;14.73;;;8.60;99.90;;;;;;4823841;29;20037;-85
2024/03/12 08:57:09;;;;;;;21.70;13.65;;;8.60;99.90;;;;;;4825071;29;20031;-85
2024/03/12 08:59:34;;;;;;;23.00;14.05;;;8.70;99.90;;;;;;4824924;29;20563;-87
2024/03/12 09:02:02;;;;;;;22.98;14.82;;;8.70;99.90;;;;;;4824757;29;20035;-86
2024/03/12 09:04:30;;;;;;;26.90;15.48;;;8.70;99.90;;;;;;4827694;29;20104;-84
2024/03/12 09:06:57;;;;;;;27.63;15.63;;;9.10;99.90;;;;;;4824100;29;20038;-85
2024/03/12 09:09:25;;;;;;;28.83;15.63;;;8.80;99.90;;;;;;4836781;29;20419;-91
2024/03/12 09:11:52;;;;;;;36.35;17.23;;;8.80;99.90;;;;;;4861749;29;20049;-86
2024/03/12 09:14:18;;;;;;;25.83;16.20;;;8.80;99.90;;;;;;4839472;29;20556;-89
2024/03/12 09:16:43;;;;;;;30.92;16.38;;;8.80;99.90;;;;;;4831325;29;20061;-85
2024/03/12 09:19:09;;;;;;;28.55;16.25;;;8.80;99.90;;;;;;4842229;29;20022;-87
2024/03/12 09:21:35;;;;;;;35.58;16.38;;;8.70;99.90;;;;;;4841880;29;20080;-88
2024/03/12 09:24:00;;;;;;;28.63;16.30;;;8.70;99.90;;;;;;4843866;29;20057;-86
2024/03/12 09:26:27;;;;;;;25.77;15.65;;;8.80;99.90;;;;;;4841061;29;20086;-89
2024/03/12 09:28:55;;;;;;;28.70;17.38;;;8.80;99.90;;;;;;4837024;29;20777;-89
2024/03/12 09:31:20;;;;;;;29.52;16.75;;;8.80;99.90;;;;;;4842597;29;20427;-85
2024/03/12 09:33:46;;;;;;;37.20;19.02;;;8.80;99.90;;;;;;4842200;29;20113;-87
2024/03/12 09:36:14;;;;;;;35.97;18.27;;;8.80;99.90;;;;;;4839862;29;20475;-89
2024/03/12 09:38:40;;;;;;;31.02;18.10;;;8.80;99.90;;;;;;4841648;29;20026;-84
2024/03/12 09:41:08;;;;;;;33.90;19.30;;;8.70;99.90;;;;;;4842341;29;20038;-86
2024/03/12 09:43:35;;;;;;;33.85;18.98;;;8.80;99.90;;;;;;4841138;29;20494;-85
2024/03/12 09:46:02;;;;;;;35.42;18.38;;;8.90;99.90;;;;;;4826951;29;20050;-85
2024/03/12 09:48:29;;;;;;;35.40;19.60;;;9.10;99.90;;;;;;4837346;29;20034;-85
2024/03/12 09:50:56;;;;;;;44.30;20.83;;;9.00;99.90;;;;;;4834161;29;20026;-84
2024/03/12 09:53:23;;;;;;;38.97;19.75;;;9.00;99.90;;;;;;4823321;29;20026;-85
2024/03/12 09:55:49;;;;;;;35.83;21.25;;;9.00;99.90;;;;;;4832950;29;20038;-86
2024/03/12 09:58:16;;;;;;;34.70;19.40;;;9.10;99.90;;;;;;4834822;29;20388;-85
2024/03/12 10:00:43;;;;;;;37.83;20.58;;;9.10;99.90;;;;;;4831135;29;20049;-84
2024/03/12 10:03:09;;;;;;;37.20;20.90;;;9.20;99.90;;;;;;4840538;29;20061;-84
2024/03/12 10:05:37;;;;;;;37.08;19.52;;;9.20;99.90;;;;;;4833755;29;20055;-85
2024/03/12 10:08:06;;;;;;;38.15;20.75;;;9.30;99.90;;;;;;4829665;29;20053;-84
2024/03/12 10:10:40;;;;;;;39.05;20.50;;;9.30;99.90;;;;;;4836808;29;20037;-87
2024/03/12 10:13:14;;;;;;;36.45;20.38;;;9.40;99.90;;;;;;4842224;29;20057;-89
2024/03/12 10:15:56;;;;;;;30.30;18.35;;;9.40;99.90;;;;;;4834003;29;20505;-87
2024/03/12 10:18:29;;;;;;;38.08;19.45;;;9.50;99.90;;;;;;4821716;29;20029;-86
2024/03/12 10:21:00;;;;;;;33.45;19.98;;;9.40;99.90;;;;;;4831029;29;20075;-85
2024/03/12 10:23:28;;;;;;;32.38;19.85;;;9.40;99.90;;;;;;4829695;29;20038;-86
2024/03/12 10:26:16;;;;;;;34.13;20.15;;;9.40;99.90;;;;;;4825696;29;20095;-85
2024/03/12 10:28:45;;;;;;;33.50;18.65;;;9.40;99.90;;;;;;4821599;29;20065;-87
2024/03/12 10:31:12;;;;;;;37.35;19.73;;;9.40;99.90;;;;;;4828735;29;20070;-88
2024/03/12 10:33:44;;;;;;;34.03;21.38;;;9.50;99.90;;;;;;4834038;29;20041;-88
2024/03/12 10:36:10;;;;;;;35.00;20.42;;;9.50;99.90;;;;;;4827489;29;20030;-89
2024/03/12 10:38:37;;;;;;;36.70;19.52;;;10.20;99.90;;;;;;4840379;29;20493;-89
2024/03/12 10:41:17;;;;;;;37.50;21.13;;;9.50;99.90;;;;;;4826174;29;20038;-89
2024/03/12 10:43:49;;;;;;;34.60;20.90;;;9.70;99.90;;;;;;4823067;29;20043;-87
2024/03/12 10:46:16;;;;;;;34.90;19.77;;;9.60;99.90;;;;;;4836100;29;20491;-87
2024/03/12 10:48:45;;;;;;;42.10;22.50;;;9.70;99.90;;;;;;4829189;29;20030;-88
2024/03/12 10:51:12;;;;;;;37.45;19.95;;;9.80;99.90;;;;;;4838515;29;20091;-88
2024/03/12 10:53:59;;;;;;;37.92;21.65;;;9.80;99.90;;;;;;4828311;29;20038;-89
2024/03/12 10:56:24;;;;;;;40.60;22.38;;;9.80;99.90;;;;;;4834033;29;20118;-88
2024/03/12 10:58:54;;;;;;;38.55;22.05;;;9.70;99.90;;;;;;4831420;29;20759;-90
2024/03/12 11:01:22;;;;;;;38.67;22.35;;;9.70;99.90;;;;;;4830305;29;20444;-89
2024/03/12 11:03:55;;;;;;;39.03;20.88;;;9.70;99.90;;;;;;4823948;29;20038;-89
2024/03/12 11:06:21;;;;;;;38.20;22.85;;;9.80;99.90;;;;;;4828174;29;20071;-88
2024/03/12 11:08:49;;;;;;;40.72;22.77;;;9.80;99.90;;;;;;4837904;29;20352;-90
2024/03/12 11:11:16;;;;;;;47.40;24.38;;;9.80;99.90;;;;;;4831654;29;20041;-92
2024/03/12 11:13:42;;;;;;;44.20;24.23;;;9.80;99.90;;;;;;4827465;29;20034;-91
2024/03/12 11:16:13;;;;;;;39.05;22.05;;;9.80;99.90;;;;;;4839082;29;20038;-89
2024/03/12 11:18:39;;;;;;;43.75;23.17;;;9.90;99.90;;;;;;4839018;29;20042;-88
2024/03/12 11:21:05;;;;;;;43.45;23.67;;;9.90;99.90;;;;;;4832365;29;20052;-90
2024/03/12 11:23:31;;;;;;;44.45;22.25;;;9.80;99.90;;;;;;4842637;29;20105;-85
2024/03/12 11:26:17;;;;;;;36.78;22.27;;;9.90;99.90;;;;;;4825716;29;20045;-87
2024/03/12 11:28:50;;;;;;;40.65;20.75;;;9.90;99.90;;;;;;4834022;29;20503;-86
2024/03/12 11:31:18;;;;;;;32.00;18.05;;;9.80;99.90;;;;;;4845375;29;20054;-87
2024/03/12 11:33:54;;;;;;;33.72;18.95;;;9.90;99.90;;;;;;4841659;29;20033;-86
2024/03/12 11:36:48;;;;;;;29.27;17.65;;;9.90;99.90;;;;;;4838125;29;20068;-86
2024/03/12 11:39:29;;;;;;;34.67;17.55;;;9.90;99.90;;;;;;4832735;29;20485;-86
2024/03/12 11:42:00;;;;;;;31.40;18.48;;;9.90;99.90;;;;;;4842401;29;20042;-84
2024/03/12 11:44:47;;;;;;;30.98;18.92;;;10.00;99.90;;;;;;4836639;29;20504;-86
2024/03/12 11:47:29;;;;;;;41.83;21.25;;;10.10;99.90;;;;;;4825142;29;20124;-85
2024/03/12 11:49:55;;;;;;;39.55;21.65;;;10.00;99.90;;;;;;4835999;29;20026;-86
2024/03/12 11:52:21;;;;;;;39.35;22.15;;;10.10;99.90;;;;;;4839293;29;20505;-84
2024/03/12 11:54:48;;;;;;;40.55;22.42;;;10.10;99.90;;;;;;4837040;29;20030;-85
2024/03/12 11:57:21;;;;;;;42.17;23.40;;;10.10;99.90;;;;;;4835685;29;20431;-86
2024/03/12 11:59:50;;;;;;;47.88;25.35;;;10.10;99.90;;;;;;4837317;29;20114;-85
2024/03/12 12:02:20;;;;;;;38.88;22.88;;;10.20;99.90;;;;;;4834012;29;20042;-85
2024/03/12 12:04:52;;;;;;;41.20;24.35;;;10.30;99.90;;;;;;4828780;29;20034;-85
2024/03/12 12:07:25;;;;;;;49.10;25.23;;;10.60;99.90;;;;;;4838924;29;20033;-86
2024/03/12 12:09:52;;;;;;;46.95;25.73;;;10.30;99.90;;;;;;4829908;29;20030;-85
2024/03/12 12:12:20;;;;;;;39.25;24.77;;;10.30;99.90;;;;;;4841669;29;20069;-90
2024/03/12 12:14:52;;;;;;;55.15;29.05;;;10.40;99.90;;;;;;4827528;29;20125;-88
2024/03/12 12:17:23;;;;;;;49.05;27.45;;;10.40;99.90;;;;;;4828465;29;20041;-89
2024/03/12 12:20:04;;;;;;;;;;;10.40;99.90;;;;;;4825454;29;20034;-88
2024/03/12 12:22:33;;;;;;;45.83;25.73;;;10.50;99.90;;;;;;4844891;29;19924;-87
2024/03/12 12:25:02;;;;;;;48.42;26.55;;;10.50;99.90;;;;;;4839487;29;20026;-90
2024/03/12 12:27:28;;;;;;;48.70;27.80;;;10.50;99.90;;;;;;4844753;29;20026;-90
2024/03/12 12:29:54;;;;;;;54.22;27.48;;;10.60;99.90;;;;;;4840063;29;20031;-88
2024/03/12 12:32:20;;;;;;;53.35;29.75;;;11.30;99.90;;;;;;4824814;29;20079;-90
2024/03/12 12:34:46;;;;;;;55.92;30.65;;;10.60;99.90;;;;;;4829403;29;20030;-89
2024/03/12 12:37:11;;;;;;;49.17;29.67;;;10.70;99.90;;;;;;4833209;29;20030;-90
2024/03/12 12:39:37;;;;;;;54.75;32.63;;;10.80;99.90;;;;;;4826824;29;20072;-88
2024/03/12 12:42:07;;;;;;;59.67;32.90;;;10.90;99.90;;;;;;4833424;29;20046;-87
2024/03/12 12:44:33;;;;;;;54.17;32.58;;;10.90;99.90;;;;;;4838203;29;20026;-90